Bookmark and Share
Track history (hours):
 

Taouey

Last reported at 2014-Apr-18 00:32 UTC. Time now 2014-Apr-23 19:10 UTC.
Position N 43°44' E 007°26'.

Length 58 m.

MMSI: 310079000.

NotesDate/timePositionNaut miles runAvg speedWind from/ knotsBaromVisibWave heightAir tempDewpointWater temp
2014-Apr-18 00:32N 43°44' E 007°26'  
2014-Apr-12 15:33N 43°40' E 007°21'1514.6
2014-Apr-12 14:33N 43°29' E 007°08'8111.5
2014-Apr-12 07:33N 43°12' E 005°19'7 7.1
2014-Apr-12 06:34N 43°19' E 005°21'0 0.2
2014-Apr-12 05:33N 43°19' E 005°22'0 0.0
2014-Apr-12 04:31N 43°19' E 005°22'0 0.0
2014-Apr-12 03:28N 43°19' E 005°22'0 0.0
2014-Apr-12 02:32N 43°19' E 005°22'0 0.0
2014-Apr-12 01:33N 43°19' E 005°22'0 0.0
2014-Apr-12 00:33N 43°19' E 005°22'0 0.0
2014-Apr-11 23:31N 43°19' E 005°22'0 0.0
2014-Apr-11 22:23N 43°19' E 005°22'0 0.0
2014-Apr-11 21:32N 43°19' E 005°22'0 0.0
2014-Apr-11 20:30N 43°19' E 005°22'0 0.0
2014-Apr-11 19:31N 43°19' E 005°22'0 0.0
2014-Apr-11 18:31N 43°19' E 005°22'0 0.0
2014-Apr-11 17:29N 43°19' E 005°22'0 0.0
2014-Apr-11 16:33N 43°19' E 005°22'0 0.0
2014-Apr-11 15:33N 43°19' E 005°22'0 0.0
2014-Apr-11 14:31N 43°19' E 005°22'3 3.1
2014-Apr-11 13:33N 43°18' E 005°18'5 5.4
2014-Apr-11 12:33N 43°18' E 005°11'6 5.9
2014-Apr-11 11:33N 43°19' E 005°19'6 5.6
2014-Apr-11 10:33N 43°19' E 005°11'8 7.8
2014-Apr-11 09:33N 43°19' E 005°22'1 0.7
2014-Apr-11 08:30N 43°19' E 005°22'0 0.0
2014-Apr-11 07:31N 43°19' E 005°22'0 0.0
2014-Apr-11 06:31N 43°19' E 005°22'0 0.0
2014-Apr-11 05:32N 43°19' E 005°22'0 0.0
2014-Apr-11 04:33N 43°19' E 005°22'0 0.0
2014-Apr-11 03:33N 43°19' E 005°22'0 0.0
2014-Apr-11 02:31N 43°19' E 005°22'0 0.0
2014-Apr-11 01:32N 43°19' E 005°22'0 0.0
2014-Apr-11 00:32N 43°19' E 005°22'0 0.0
2014-Apr-10 23:33N 43°19' E 005°22'0 0.0
2014-Apr-10 21:31N 43°19' E 005°22'0 0.0
2014-Apr-10 20:32N 43°19' E 005°22'0 0.0
2014-Apr-10 19:33N 43°19' E 005°22'0 0.0
2014-Apr-10 18:30N 43°19' E 005°22'0 0.0
2014-Apr-10 17:31N 43°19' E 005°22'0 0.0
2014-Apr-10 16:32N 43°19' E 005°22'0 0.0
2014-Apr-10 15:29N 43°19' E 005°22'0 0.0
2014-Apr-10 14:33N 43°19' E 005°22'0 0.0
2014-Apr-10 13:10N 43°19' E 005°22'0 0.0
2014-Apr-10 12:31N 43°19' E 005°22'0 0.0
2014-Apr-10 11:32N 43°19' E 005°22'0 0.0
2014-Apr-10 10:33N 43°19' E 005°22'0 0.0
2014-Apr-10 09:33N 43°19' E 005°22'  

Dump ship's entire track history

sailing weather and tide predictions

Taouey — ZCAY9 — position and weather